sensor_id;sensor_type;location;lat;lon;timestamp;P1;durP1;ratioP1;P2;durP2;ratioP2
50733;SDS011;36701;51.798;19.474;2023-05-02T02:00:47;8.00;;;4.03;;
50733;SDS011;36701;51.798;19.474;2023-05-02T02:03:14;6.28;;;3.05;;
50733;SDS011;36701;51.798;19.474;2023-05-02T02:05:40;17.73;;;4.30;;
50733;SDS011;36701;51.798;19.474;2023-05-02T02:08:07;9.23;;;3.78;;
50733;SDS011;36701;51.798;19.474;2023-05-02T02:10:39;10.18;;;3.83;;
50733;SDS011;36701;51.798;19.474;2023-05-02T02:13:24;5.85;;;3.85;;
50733;SDS011;36701;51.798;19.474;2023-05-02T02:15:52;11.20;;;4.03;;
50733;SDS011;36701;51.798;19.474;2023-05-02T02:18:23;10.93;;;3.58;;
50733;SDS011;36701;51.798;19.474;2023-05-02T02:20:51;7.55;;;3.58;;
50733;SDS011;36701;51.798;19.474;2023-05-02T02:23:20;18.00;;;4.80;;
50733;SDS011;36701;51.798;19.474;2023-05-02T02:25:49;7.95;;;3.72;;
50733;SDS011;36701;51.798;19.474;2023-05-02T02:28:15;8.82;;;3.90;;
50733;SDS011;36701;51.798;19.474;2023-05-02T02:30:41;9.02;;;3.58;;
50733;SDS011;36701;51.798;19.474;2023-05-02T02:33:08;9.30;;;4.20;;
50733;SDS011;36701;51.798;19.474;2023-05-02T02:35:38;10.57;;;3.58;;
50733;SDS011;36701;51.798;19.474;2023-05-02T02:40:40;14.10;;;4.53;;
50733;SDS011;36701;51.798;19.474;2023-05-02T02:45:47;11.45;;;5.95;;
50733;SDS011;36701;51.798;19.474;2023-05-02T02:48:36;9.40;;;3.63;;
50733;SDS011;36701;51.798;19.474;2023-05-02T02:51:06;6.95;;;3.90;;
50733;SDS011;36701;51.798;19.474;2023-05-02T02:56:21;8.13;;;3.62;;
50733;SDS011;36701;51.798;19.474;2023-05-02T02:58:54;6.60;;;4.10;;
50733;SDS011;36701;51.798;19.474;2023-05-02T03:01:23;6.05;;;4.37;;
50733;SDS011;36701;51.798;19.474;2023-05-02T03:03:50;12.73;;;3.85;;
50733;SDS011;36701;51.798;19.474;2023-05-02T03:06:22;4.53;;;3.72;;
50733;SDS011;36701;51.798;19.474;2023-05-02T03:08:50;8.23;;;3.65;;
50733;SDS011;36701;51.798;19.474;2023-05-02T03:11:16;10.95;;;4.30;;
50733;SDS011;36701;51.798;19.474;2023-05-02T03:13:43;9.98;;;4.05;;
50733;SDS011;36701;51.798;19.474;2023-05-02T03:18:54;10.70;;;3.97;;
50733;SDS011;36701;51.798;19.474;2023-05-02T03:21:21;10.50;;;4.05;;
50733;SDS011;36701;51.798;19.474;2023-05-02T03:23:48;8.07;;;4.25;;
50733;SDS011;36701;51.798;19.474;2023-05-02T03:26:15;6.62;;;4.05;;
50733;SDS011;36701;51.798;19.474;2023-05-02T03:28:42;6.55;;;3.65;;
50733;SDS011;36701;51.798;19.474;2023-05-02T03:31:12;8.23;;;4.43;;
50733;SDS011;36701;51.798;19.474;2023-05-02T03:33:42;15.65;;;4.53;;
50733;SDS011;36701;51.798;19.474;2023-05-02T03:36:08;8.77;;;3.42;;
50733;SDS011;36701;51.798;19.474;2023-05-02T03:38:34;10.85;;;4.10;;
50733;SDS011;36701;51.798;19.474;2023-05-02T03:41:01;11.73;;;4.00;;
50733;SDS011;36701;51.798;19.474;2023-05-02T03:43:29;14.93;;;4.55;;
50733;SDS011;36701;51.798;19.474;2023-05-02T03:45:56;9.98;;;4.18;;
50733;SDS011;36701;51.798;19.474;2023-05-02T03:48:22;12.75;;;4.20;;
50733;SDS011;36701;51.798;19.474;2023-05-02T03:50:49;9.65;;;4.07;;
50733;SDS011;36701;51.798;19.474;2023-05-02T03:53:15;9.88;;;4.12;;
50733;SDS011;36701;51.798;19.474;2023-05-02T03:55:42;10.50;;;3.70;;
50733;SDS011;36701;51.798;19.474;2023-05-02T03:58:09;10.80;;;4.30;;
50733;SDS011;36701;51.798;19.474;2023-05-02T04:00:35;10.10;;;4.25;;
50733;SDS011;36701;51.798;19.474;2023-05-02T04:03:03;7.47;;;4.15;;
50733;SDS011;36701;51.798;19.474;2023-05-02T04:05:30;11.95;;;4.28;;
50733;SDS011;36701;51.798;19.474;2023-05-02T04:07:56;9.18;;;4.30;;
50733;SDS011;36701;51.798;19.474;2023-05-02T04:10:24;12.57;;;4.93;;
50733;SDS011;36701;51.798;19.474;2023-05-02T04:12:50;11.43;;;4.30;;
50733;SDS011;36701;51.798;19.474;2023-05-02T04:15:16;11.35;;;4.65;;
50733;SDS011;36701;51.798;19.474;2023-05-02T04:17:43;11.52;;;4.45;;
50733;SDS011;36701;51.798;19.474;2023-05-02T04:20:10;14.35;;;4.30;;
50733;SDS011;36701;51.798;19.474;2023-05-02T04:22:37;15.63;;;4.90;;
50733;SDS011;36701;51.798;19.474;2023-05-02T04:25:05;9.80;;;3.80;;
50733;SDS011;36701;51.798;19.474;2023-05-02T04:27:33;9.88;;;5.55;;
50733;SDS011;36701;51.798;19.474;2023-05-02T04:29:59;8.30;;;4.00;;
50733;SDS011;36701;51.798;19.474;2023-05-02T04:32:25;11.20;;;4.28;;
50733;SDS011;36701;51.798;19.474;2023-05-02T04:34:52;10.85;;;4.32;;
50733;SDS011;36701;51.798;19.474;2023-05-02T04:37:19;9.55;;;3.70;;
50733;SDS011;36701;51.798;19.474;2023-05-02T04:39:45;21.35;;;4.62;;
50733;SDS011;36701;51.798;19.474;2023-05-02T04:42:12;5.65;;;4.40;;
50733;SDS011;36701;51.798;19.474;2023-05-02T04:44:39;9.77;;;5.10;;
50733;SDS011;36701;51.798;19.474;2023-05-02T04:47:05;6.15;;;4.07;;
50733;SDS011;36701;51.798;19.474;2023-05-02T04:49:31;10.88;;;4.85;;
50733;SDS011;36701;51.798;19.474;2023-05-02T04:51:58;9.70;;;3.60;;
50733;SDS011;36701;51.798;19.474;2023-05-02T04:54:24;10.05;;;4.40;;
50733;SDS011;36701;51.798;19.474;2023-05-02T04:56:51;9.93;;;4.37;;
50733;SDS011;36701;51.798;19.474;2023-05-02T04:59:17;10.60;;;3.83;;
50733;SDS011;36701;51.798;19.474;2023-05-02T05:01:44;14.90;;;4.30;;
50733;SDS011;36701;51.798;19.474;2023-05-02T05:04:10;15.85;;;6.10;;
50733;SDS011;36701;51.798;19.474;2023-05-02T05:06:37;7.32;;;4.60;;
50733;SDS011;36701;51.798;19.474;2023-05-02T05:09:03;9.13;;;4.32;;
50733;SDS011;36701;51.798;19.474;2023-05-02T05:11:30;7.45;;;4.25;;
50733;SDS011;36701;51.798;19.474;2023-05-02T05:13:56;7.55;;;3.50;;
50733;SDS011;36701;51.798;19.474;2023-05-02T05:16:24;7.65;;;3.97;;
50733;SDS011;36701;51.798;19.474;2023-05-02T05:18:50;14.25;;;4.65;;
50733;SDS011;36701;51.798;19.474;2023-05-02T05:21:18;11.68;;;3.78;;
50733;SDS011;36701;51.798;19.474;2023-05-02T05:23:45;17.70;;;4.10;;
50733;SDS011;36701;51.798;19.474;2023-05-02T05:26:15;8.75;;;3.65;;
50733;SDS011;36701;51.798;19.474;2023-05-02T05:28:42;11.73;;;4.55;;
50733;SDS011;36701;51.798;19.474;2023-05-02T05:31:16;12.23;;;3.60;;
50733;SDS011;36701;51.798;19.474;2023-05-02T05:33:43;5.28;;;3.10;;
50733;SDS011;36701;51.798;19.474;2023-05-02T05:36:11;10.73;;;4.00;;
50733;SDS011;36701;51.798;19.474;2023-05-02T05:38:37;8.40;;;3.45;;
50733;SDS011;36701;51.798;19.474;2023-05-02T05:41:03;7.35;;;3.40;;
50733;SDS011;36701;51.798;19.474;2023-05-02T05:43:31;8.13;;;3.47;;
50733;SDS011;36701;51.798;19.474;2023-05-02T05:45:58;6.18;;;3.95;;
50733;SDS011;36701;51.798;19.474;2023-05-02T05:48:25;6.43;;;3.12;;
50733;SDS011;36701;51.798;19.474;2023-05-02T05:50:51;7.78;;;3.58;;
50733;SDS011;36701;51.798;19.474;2023-05-02T05:53:17;14.73;;;3.85;;
50733;SDS011;36701;51.798;19.474;2023-05-02T05:55:45;6.15;;;3.37;;
50733;SDS011;36701;51.798;19.474;2023-05-02T05:58:12;7.53;;;3.25;;
50733;SDS011;36701;51.798;19.474;2023-05-02T06:00:38;16.02;;;3.80;;
50733;SDS011;36701;51.798;19.474;2023-05-02T06:03:05;7.85;;;3.35;;
50733;SDS011;36701;51.798;19.474;2023-05-02T06:05:34;5.10;;;2.95;;
50733;SDS011;36701;51.798;19.474;2023-05-02T06:08:00;7.80;;;3.08;;
50733;SDS011;36701;51.798;19.474;2023-05-02T06:10:27;13.90;;;4.03;;
50733;SDS011;36701;51.798;19.474;2023-05-02T06:12:53;7.47;;;3.33;;
50733;SDS011;36701;51.798;19.474;2023-05-02T06:15:20;5.00;;;3.55;;
50733;SDS011;36701;51.798;19.474;2023-05-02T06:17:46;11.27;;;3.78;;
50733;SDS011;36701;51.798;19.474;2023-05-02T06:20:14;6.47;;;3.45;;
50733;SDS011;36701;51.798;19.474;2023-05-02T06:22:41;5.32;;;3.05;;
50733;SDS011;36701;51.798;19.474;2023-05-02T06:25:07;10.93;;;3.78;;
50733;SDS011;36701;51.798;19.474;2023-05-02T06:27:40;6.30;;;4.10;;
50733;SDS011;36701;51.798;19.474;2023-05-02T06:30:06;4.55;;;2.92;;
50733;SDS011;36701;51.798;19.474;2023-05-02T06:32:32;6.18;;;3.62;;
50733;SDS011;36701;51.798;19.474;2023-05-02T06:34:58;11.07;;;4.18;;
50733;SDS011;36701;51.798;19.474;2023-05-02T06:37:24;13.50;;;4.20;;
50733;SDS011;36701;51.798;19.474;2023-05-02T06:39:51;4.78;;;3.30;;
50733;SDS011;36701;51.798;19.474;2023-05-02T06:42:17;10.57;;;3.60;;
50733;SDS011;36701;51.798;19.474;2023-05-02T06:44:43;6.15;;;3.10;;
50733;SDS011;36701;51.798;19.474;2023-05-02T06:47:09;4.87;;;3.70;;
50733;SDS011;36701;51.798;19.474;2023-05-02T06:49:35;5.10;;;3.60;;
50733;SDS011;36701;51.798;19.474;2023-05-02T06:52:01;10.80;;;3.80;;
50733;SDS011;36701;51.798;19.474;2023-05-02T06:54:28;4.15;;;2.97;;
50733;SDS011;36701;51.798;19.474;2023-05-02T06:56:54;12.35;;;3.70;;
50733;SDS011;36701;51.798;19.474;2023-05-02T06:59:20;7.55;;;4.20;;
50733;SDS011;36701;51.798;19.474;2023-05-02T07:01:46;11.55;;;4.75;;
50733;SDS011;36701;51.798;19.474;2023-05-02T07:04:12;14.32;;;4.18;;
50733;SDS011;36701;51.798;19.474;2023-05-02T07:06:38;19.48;;;5.25;;
50733;SDS011;36701;51.798;19.474;2023-05-02T07:09:05;8.93;;;3.97;;
50733;SDS011;36701;51.798;19.474;2023-05-02T07:11:31;9.38;;;4.68;;
50733;SDS011;36701;51.798;19.474;2023-05-02T07:13:57;6.05;;;3.80;;
50733;SDS011;36701;51.798;19.474;2023-05-02T07:16:23;7.47;;;4.15;;
50733;SDS011;36701;51.798;19.474;2023-05-02T07:18:50;16.25;;;3.72;;
50733;SDS011;36701;51.798;19.474;2023-05-02T07:21:16;9.60;;;4.12;;
50733;SDS011;36701;51.798;19.474;2023-05-02T07:23:44;6.00;;;3.72;;
50733;SDS011;36701;51.798;19.474;2023-05-02T07:26:10;8.63;;;3.55;;
50733;SDS011;36701;51.798;19.474;2023-05-02T07:28:36;6.62;;;4.32;;
50733;SDS011;36701;51.798;19.474;2023-05-02T07:31:02;6.50;;;4.00;;
50733;SDS011;36701;51.798;19.474;2023-05-02T07:33:29;9.23;;;4.20;;
50733;SDS011;36701;51.798;19.474;2023-05-02T07:35:55;7.25;;;4.25;;
50733;SDS011;36701;51.798;19.474;2023-05-02T07:38:22;4.32;;;3.12;;
50733;SDS011;36701;51.798;19.474;2023-05-02T07:40:48;5.12;;;3.80;;
50733;SDS011;36701;51.798;19.474;2023-05-02T07:43:14;7.18;;;3.25;;
50733;SDS011;36701;51.798;19.474;2023-05-02T07:45:41;6.20;;;3.55;;
50733;SDS011;36701;51.798;19.474;2023-05-02T07:48:07;10.93;;;4.05;;
50733;SDS011;36701;51.798;19.474;2023-05-02T07:50:33;8.35;;;4.45;;
50733;SDS011;36701;51.798;19.474;2023-05-02T07:52:59;7.32;;;4.22;;
50733;SDS011;36701;51.798;19.474;2023-05-02T07:55:25;8.07;;;4.57;;
50733;SDS011;36701;51.798;19.474;2023-05-02T07:57:52;8.88;;;4.60;;
50733;SDS011;36701;51.798;19.474;2023-05-02T08:00:18;7.55;;;4.40;;
50733;SDS011;36701;51.798;19.474;2023-05-02T08:02:45;7.32;;;3.95;;
50733;SDS011;36701;51.798;19.474;2023-05-02T08:05:11;7.30;;;4.35;;
50733;SDS011;36701;51.798;19.474;2023-05-02T08:07:37;5.03;;;3.58;;
50733;SDS011;36701;51.798;19.474;2023-05-02T08:10:04;5.40;;;4.10;;
50733;SDS011;36701;51.798;19.474;2023-05-02T08:12:30;3.90;;;3.45;;
50733;SDS011;36701;51.798;19.474;2023-05-02T08:14:56;6.78;;;4.25;;
50733;SDS011;36701;51.798;19.474;2023-05-02T08:17:23;7.62;;;4.05;;
50733;SDS011;36701;51.798;19.474;2023-05-02T08:19:49;5.87;;;3.83;;
50733;SDS011;36701;51.798;19.474;2023-05-02T08:22:15;7.65;;;3.90;;
50733;SDS011;36701;51.798;19.474;2023-05-02T08:24:47;6.87;;;4.15;;
50733;SDS011;36701;51.798;19.474;2023-05-02T08:27:14;11.77;;;5.25;;
50733;SDS011;36701;51.798;19.474;2023-05-02T08:29:40;10.00;;;4.07;;
50733;SDS011;36701;51.798;19.474;2023-05-02T08:32:06;8.27;;;3.90;;
50733;SDS011;36701;51.798;19.474;2023-05-02T08:34:32;10.02;;;4.05;;
50733;SDS011;36701;51.798;19.474;2023-05-02T08:36:59;11.85;;;4.12;;
50733;SDS011;36701;51.798;19.474;2023-05-02T08:39:25;7.55;;;4.68;;
50733;SDS011;36701;51.798;19.474;2023-05-02T08:41:51;14.30;;;4.72;;
50733;SDS011;36701;51.798;19.474;2023-05-02T08:44:17;17.92;;;5.68;;
50733;SDS011;36701;51.798;19.474;2023-05-02T08:46:43;8.88;;;4.30;;
50733;SDS011;36701;51.798;19.474;2023-05-02T08:49:10;9.27;;;4.70;;
50733;SDS011;36701;51.798;19.474;2023-05-02T08:51:36;5.65;;;3.78;;
50733;SDS011;36701;51.798;19.474;2023-05-02T08:54:03;8.68;;;4.40;;
50733;SDS011;36701;51.798;19.474;2023-05-02T08:56:32;9.77;;;4.65;;
50733;SDS011;36701;51.798;19.474;2023-05-02T08:58:58;13.77;;;3.78;;
50733;SDS011;36701;51.798;19.474;2023-05-02T09:01:29;9.35;;;4.93;;
50733;SDS011;36701;51.798;19.474;2023-05-02T09:03:56;13.00;;;5.85;;
50733;SDS011;36701;51.798;19.474;2023-05-02T09:06:31;8.43;;;5.10;;
50733;SDS011;36701;51.798;19.474;2023-05-02T09:08:58;8.98;;;4.72;;
50733;SDS011;36701;51.798;19.474;2023-05-02T09:11:24;12.23;;;4.90;;
50733;SDS011;36701;51.798;19.474;2023-05-02T09:13:51;9.43;;;4.65;;
50733;SDS011;36701;51.798;19.474;2023-05-02T09:16:21;7.22;;;5.30;;
50733;SDS011;36701;51.798;19.474;2023-05-02T09:18:48;5.87;;;4.57;;
50733;SDS011;36701;51.798;19.474;2023-05-02T09:21:16;9.40;;;5.82;;
50733;SDS011;36701;51.798;19.474;2023-05-02T09:23:43;10.18;;;5.05;;
50733;SDS011;36701;51.798;19.474;2023-05-02T09:26:14;14.20;;;4.70;;
50733;SDS011;36701;51.798;19.474;2023-05-02T09:28:42;8.13;;;5.30;;
50733;SDS011;36701;51.798;19.474;2023-05-02T09:31:09;7.68;;;5.30;;
50733;SDS011;36701;51.798;19.474;2023-05-02T09:33:36;8.43;;;5.50;;
50733;SDS011;36701;51.798;19.474;2023-05-02T09:36:02;7.62;;;4.85;;
50733;SDS011;36701;51.798;19.474;2023-05-02T09:38:29;9.23;;;5.47;;
50733;SDS011;36701;51.798;19.474;2023-05-02T09:40:55;6.45;;;4.18;;
50733;SDS011;36701;51.798;19.474;2023-05-02T09:43:21;6.65;;;5.10;;
50733;SDS011;36701;51.798;19.474;2023-05-02T09:46:00;8.10;;;4.97;;
50733;SDS011;36701;51.798;19.474;2023-05-02T09:48:27;10.77;;;5.28;;
50733;SDS011;36701;51.798;19.474;2023-05-02T09:50:54;9.18;;;4.82;;
50733;SDS011;36701;51.798;19.474;2023-05-02T09:53:20;11.70;;;5.10;;
50733;SDS011;36701;51.798;19.474;2023-05-02T09:55:47;10.07;;;5.70;;
50733;SDS011;36701;51.798;19.474;2023-05-02T09:58:20;9.85;;;4.82;;
50733;SDS011;36701;51.798;19.474;2023-05-02T10:00:47;6.05;;;4.60;;
50733;SDS011;36701;51.798;19.474;2023-05-02T10:03:15;9.02;;;5.55;;
50733;SDS011;36701;51.798;19.474;2023-05-02T10:05:43;6.53;;;4.80;;
50733;SDS011;36701;51.798;19.474;2023-05-02T10:08:12;9.48;;;4.80;;
50733;SDS011;36701;51.798;19.474;2023-05-02T10:10:40;12.90;;;5.40;;
50733;SDS011;36701;51.798;19.474;2023-05-02T10:13:09;8.05;;;4.65;;
50733;SDS011;36701;51.798;19.474;2023-05-02T10:15:43;7.45;;;5.40;;
50733;SDS011;36701;51.798;19.474;2023-05-02T10:18:25;8.88;;;4.72;;
50733;SDS011;36701;51.798;19.474;2023-05-02T10:20:57;9.07;;;4.53;;
50733;SDS011;36701;51.798;19.474;2023-05-02T10:23:26;7.07;;;4.57;;
50733;SDS011;36701;51.798;19.474;2023-05-02T10:25:53;6.47;;;4.70;;
50733;SDS011;36701;51.798;19.474;2023-05-02T10:28:19;9.13;;;6.05;;
50733;SDS011;36701;51.798;19.474;2023-05-02T10:30:46;8.93;;;4.60;;
50733;SDS011;36701;51.798;19.474;2023-05-02T10:33:12;5.80;;;4.47;;
50733;SDS011;36701;51.798;19.474;2023-05-02T10:35:42;9.48;;;5.12;;
50733;SDS011;36701;51.798;19.474;2023-05-02T10:38:08;9.35;;;4.47;;
50733;SDS011;36701;51.798;19.474;2023-05-02T10:40:35;13.38;;;5.22;;
50733;SDS011;36701;51.798;19.474;2023-05-02T10:43:07;11.50;;;4.35;;
50733;SDS011;36701;51.798;19.474;2023-05-02T10:45:34;8.35;;;5.07;;
50733;SDS011;36701;51.798;19.474;2023-05-02T10:50:45;13.62;;;4.18;;
50733;SDS011;36701;51.798;19.474;2023-05-02T10:53:28;11.88;;;5.70;;
50733;SDS011;36701;51.798;19.474;2023-05-02T10:58:32;7.30;;;5.00;;
50733;SDS011;36701;51.798;19.474;2023-05-02T11:04:02;7.05;;;4.65;;
50733;SDS011;36701;51.798;19.474;2023-05-02T11:06:33;6.43;;;4.82;;
50733;SDS011;36701;51.798;19.474;2023-05-02T11:11:40;8.38;;;4.72;;
50733;SDS011;36701;51.798;19.474;2023-05-02T11:14:07;17.35;;;4.90;;
50733;SDS011;36701;51.798;19.474;2023-05-02T11:19:19;9.07;;;4.55;;
50733;SDS011;36701;51.798;19.474;2023-05-02T11:21:46;9.05;;;4.85;;
50733;SDS011;36701;51.798;19.474;2023-05-02T11:29:51;10.63;;;5.15;;
50733;SDS011;36701;51.798;19.474;2023-05-02T11:32:17;7.35;;;5.18;;
50733;SDS011;36701;51.798;19.474;2023-05-02T11:34:43;15.52;;;4.75;;
50733;SDS011;36701;51.798;19.474;2023-05-02T11:37:11;8.98;;;5.00;;
50733;SDS011;36701;51.798;19.474;2023-05-02T11:39:37;7.55;;;4.35;;
50733;SDS011;36701;51.798;19.474;2023-05-02T11:42:03;10.48;;;4.68;;
50733;SDS011;36701;51.798;19.474;2023-05-02T11:44:30;6.03;;;4.75;;
50733;SDS011;36701;51.798;19.474;2023-05-02T11:47:02;12.23;;;4.90;;
50733;SDS011;36701;51.798;19.474;2023-05-02T11:49:28;9.73;;;5.50;;
50733;SDS011;36701;51.798;19.474;2023-05-02T11:51:57;9.45;;;5.20;;
50733;SDS011;36701;51.798;19.474;2023-05-02T11:54:23;10.20;;;5.07;;
50733;SDS011;36701;51.798;19.474;2023-05-02T11:56:49;9.80;;;5.57;;
50733;SDS011;36701;51.798;19.474;2023-05-02T11:59:16;14.38;;;5.68;;
50733;SDS011;36701;51.798;19.474;2023-05-02T12:01:49;12.63;;;5.75;;
50733;SDS011;36701;51.798;19.474;2023-05-02T12:04:16;13.85;;;7.60;;
50733;SDS011;36701;51.798;19.474;2023-05-02T12:06:53;9.77;;;6.45;;
50733;SDS011;36701;51.798;19.474;2023-05-02T12:09:20;10.95;;;5.72;;
50733;SDS011;36701;51.798;19.474;2023-05-02T12:11:51;9.02;;;5.45;;
50733;SDS011;36701;51.798;19.474;2023-05-02T12:14:17;9.10;;;5.22;;
50733;SDS011;36701;51.798;19.474;2023-05-02T12:16:51;9.10;;;5.25;;
50733;SDS011;36701;51.798;19.474;2023-05-02T12:19:17;7.25;;;5.43;;
50733;SDS011;36701;51.798;19.474;2023-05-02T12:21:43;12.73;;;6.43;;
50733;SDS011;36701;51.798;19.474;2023-05-02T12:24:09;6.65;;;5.20;;
50733;SDS011;36701;51.798;19.474;2023-05-02T12:26:35;12.50;;;6.05;;
50733;SDS011;36701;51.798;19.474;2023-05-02T12:29:03;6.82;;;5.18;;
50733;SDS011;36701;51.798;19.474;2023-05-02T12:31:31;8.90;;;5.60;;
50733;SDS011;36701;51.798;19.474;2023-05-02T12:33:57;8.80;;;5.47;;
50733;SDS011;36701;51.798;19.474;2023-05-02T12:36:25;13.38;;;5.10;;
50733;SDS011;36701;51.798;19.474;2023-05-02T12:38:54;8.77;;;5.03;;
50733;SDS011;36701;51.798;19.474;2023-05-02T12:41:31;8.60;;;5.07;;
50733;SDS011;36701;51.798;19.474;2023-05-02T12:43:58;7.15;;;4.60;;
50733;SDS011;36701;51.798;19.474;2023-05-02T12:46:25;11.10;;;5.57;;
50733;SDS011;36701;51.798;19.474;2023-05-02T12:49:06;7.90;;;4.85;;
50733;SDS011;36701;51.798;19.474;2023-05-02T12:51:38;7.78;;;4.70;;
50733;SDS011;36701;51.798;19.474;2023-05-02T12:54:04;7.70;;;4.03;;
50733;SDS011;36701;51.798;19.474;2023-05-02T12:56:38;6.68;;;4.28;;
50733;SDS011;36701;51.798;19.474;2023-05-02T12:59:04;7.10;;;4.95;;
50733;SDS011;36701;51.798;19.474;2023-05-02T13:01:33;7.37;;;4.37;;
50733;SDS011;36701;51.798;19.474;2023-05-02T13:03:59;10.55;;;4.70;;
50733;SDS011;36701;51.798;19.474;2023-05-02T13:06:26;7.28;;;3.90;;
50733;SDS011;36701;51.798;19.474;2023-05-02T13:08:52;9.35;;;5.07;;
50733;SDS011;36701;51.798;19.474;2023-05-02T13:11:18;7.28;;;4.47;;
50733;SDS011;36701;51.798;19.474;2023-05-02T13:13:45;4.93;;;3.90;;
50733;SDS011;36701;51.798;19.474;2023-05-02T13:16:11;5.47;;;4.97;;
50733;SDS011;36701;51.798;19.474;2023-05-02T13:18:37;5.20;;;4.37;;
50733;SDS011;36701;51.798;19.474;2023-05-02T13:21:04;9.70;;;4.18;;
50733;SDS011;36701;51.798;19.474;2023-05-02T13:23:30;9.00;;;4.43;;
50733;SDS011;36701;51.798;19.474;2023-05-02T13:25:56;7.25;;;4.45;;
50733;SDS011;36701;51.798;19.474;2023-05-02T13:28:22;11.50;;;4.37;;
50733;SDS011;36701;51.798;19.474;2023-05-02T13:30:49;6.35;;;4.45;;
50733;SDS011;36701;51.798;19.474;2023-05-02T13:33:15;5.90;;;4.30;;
50733;SDS011;36701;51.798;19.474;2023-05-02T13:35:42;8.27;;;5.10;;
50733;SDS011;36701;51.798;19.474;2023-05-02T13:38:08;9.60;;;4.55;;
50733;SDS011;36701;51.798;19.474;2023-05-02T13:40:34;12.50;;;4.72;;
50733;SDS011;36701;51.798;19.474;2023-05-02T13:43:00;11.38;;;5.47;;
50733;SDS011;36701;51.798;19.474;2023-05-02T13:45:27;7.68;;;4.70;;
50733;SDS011;36701;51.798;19.474;2023-05-02T13:47:53;9.35;;;5.12;;
50733;SDS011;36701;51.798;19.474;2023-05-02T13:50:19;10.85;;;4.57;;
50733;SDS011;36701;51.798;19.474;2023-05-02T13:52:45;20.05;;;6.10;;
50733;SDS011;36701;51.798;19.474;2023-05-02T13:55:12;15.40;;;6.28;;
50733;SDS011;36701;51.798;19.474;2023-05-02T13:57:38;7.47;;;5.28;;
50733;SDS011;36701;51.798;19.474;2023-05-02T14:00:04;9.60;;;5.00;;
50733;SDS011;36701;51.798;19.474;2023-05-02T14:02:32;9.95;;;5.37;;
50733;SDS011;36701;51.798;19.474;2023-05-02T14:04:59;9.80;;;4.72;;
50733;SDS011;36701;51.798;19.474;2023-05-02T14:07:25;11.90;;;6.62;;
50733;SDS011;36701;51.798;19.474;2023-05-02T14:09:51;5.57;;;4.50;;
50733;SDS011;36701;51.798;19.474;2023-05-02T14:12:17;12.18;;;5.00;;
50733;SDS011;36701;51.798;19.474;2023-05-02T14:14:43;6.10;;;4.50;;
50733;SDS011;36701;51.798;19.474;2023-05-02T14:17:10;17.92;;;5.93;;
50733;SDS011;36701;51.798;19.474;2023-05-02T14:19:36;8.27;;;5.30;;
50733;SDS011;36701;51.798;19.474;2023-05-02T14:22:02;8.95;;;5.53;;
50733;SDS011;36701;51.798;19.474;2023-05-02T14:24:28;7.70;;;5.45;;
50733;SDS011;36701;51.798;19.474;2023-05-02T14:26:54;10.90;;;6.22;;
50733;SDS011;36701;51.798;19.474;2023-05-02T14:29:20;11.85;;;6.15;;
50733;SDS011;36701;51.798;19.474;2023-05-02T14:31:46;9.90;;;5.35;;
50733;SDS011;36701;51.798;19.474;2023-05-02T14:34:13;12.05;;;5.60;;
50733;SDS011;36701;51.798;19.474;2023-05-02T14:36:39;7.60;;;4.53;;
50733;SDS011;36701;51.798;19.474;2023-05-02T14:39:05;8.20;;;5.35;;
50733;SDS011;36701;51.798;19.474;2023-05-02T14:41:31;8.43;;;5.12;;
50733;SDS011;36701;51.798;19.474;2023-05-02T14:43:58;11.35;;;5.50;;
50733;SDS011;36701;51.798;19.474;2023-05-02T14:46:23;9.25;;;5.93;;
50733;SDS011;36701;51.798;19.474;2023-05-02T14:48:50;9.90;;;5.40;;
50733;SDS011;36701;51.798;19.474;2023-05-02T14:51:16;7.35;;;5.35;;
50733;SDS011;36701;51.798;19.474;2023-05-02T14:53:42;6.03;;;4.80;;
50733;SDS011;36701;51.798;19.474;2023-05-02T14:56:11;8.15;;;5.10;;
50733;SDS011;36701;51.798;19.474;2023-05-02T14:58:38;6.50;;;4.65;;
50733;SDS011;36701;51.798;19.474;2023-05-02T15:01:04;7.12;;;4.57;;
50733;SDS011;36701;51.798;19.474;2023-05-02T15:03:31;17.02;;;7.60;;
50733;SDS011;36701;51.798;19.474;2023-05-02T15:05:56;10.15;;;6.20;;
50733;SDS011;36701;51.798;19.474;2023-05-02T15:08:23;14.90;;;5.32;;
50733;SDS011;36701;51.798;19.474;2023-05-02T15:10:50;11.02;;;6.22;;
50733;SDS011;36701;51.798;19.474;2023-05-02T15:13:16;8.40;;;4.55;;
50733;SDS011;36701;51.798;19.474;2023-05-02T15:15:43;7.80;;;4.72;;
50733;SDS011;36701;51.798;19.474;2023-05-02T15:18:11;9.75;;;4.57;;
50733;SDS011;36701;51.798;19.474;2023-05-02T15:20:37;10.32;;;4.43;;
50733;SDS011;36701;51.798;19.474;2023-05-02T15:23:03;7.10;;;3.95;;
50733;SDS011;36701;51.798;19.474;2023-05-02T15:25:29;4.78;;;3.83;;
50733;SDS011;36701;51.798;19.474;2023-05-02T15:27:56;7.80;;;5.00;;
50733;SDS011;36701;51.798;19.474;2023-05-02T15:30:28;10.73;;;4.43;;
50733;SDS011;36701;51.798;19.474;2023-05-02T15:33:02;6.12;;;4.07;;
50733;SDS011;36701;51.798;19.474;2023-05-02T15:35:28;8.40;;;4.03;;
50733;SDS011;36701;51.798;19.474;2023-05-02T15:37:54;9.18;;;4.57;;
50733;SDS011;36701;51.798;19.474;2023-05-02T15:40:20;6.25;;;4.07;;
50733;SDS011;36701;51.798;19.474;2023-05-02T15:42:46;6.22;;;3.80;;
50733;SDS011;36701;51.798;19.474;2023-05-02T15:45:13;6.03;;;4.25;;
50733;SDS011;36701;51.798;19.474;2023-05-02T15:47:39;8.70;;;4.03;;
50733;SDS011;36701;51.798;19.474;2023-05-02T15:50:06;4.10;;;3.62;;
50733;SDS011;36701;51.798;19.474;2023-05-02T15:52:32;9.10;;;3.92;;
50733;SDS011;36701;51.798;19.474;2023-05-02T15:54:59;8.75;;;3.50;;
50733;SDS011;36701;51.798;19.474;2023-05-02T15:57:26;5.05;;;3.40;;
50733;SDS011;36701;51.798;19.474;2023-05-02T15:59:52;6.47;;;3.03;;
50733;SDS011;36701;51.798;19.474;2023-05-02T16:02:18;6.05;;;3.90;;
50733;SDS011;36701;51.798;19.474;2023-05-02T16:04:45;7.82;;;3.45;;
50733;SDS011;36701;51.798;19.474;2023-05-02T16:07:11;8.68;;;3.67;;
50733;SDS011;36701;51.798;19.474;2023-05-02T16:09:37;6.65;;;3.80;;
50733;SDS011;36701;51.798;19.474;2023-05-02T16:12:04;6.60;;;4.07;;
50733;SDS011;36701;51.798;19.474;2023-05-02T16:14:31;6.65;;;3.60;;
50733;SDS011;36701;51.798;19.474;2023-05-02T16:16:57;11.45;;;3.50;;
50733;SDS011;36701;51.798;19.474;2023-05-02T16:19:24;4.55;;;3.70;;
50733;SDS011;36701;51.798;19.474;2023-05-02T16:21:50;9.50;;;4.37;;
50733;SDS011;36701;51.798;19.474;2023-05-02T16:24:16;7.68;;;3.25;;
50733;SDS011;36701;51.798;19.474;2023-05-02T16:26:43;3.50;;;3.15;;
50733;SDS011;36701;51.798;19.474;2023-05-02T16:29:10;3.72;;;2.95;;
50733;SDS011;36701;51.798;19.474;2023-05-02T16:31:36;4.37;;;3.10;;
50733;SDS011;36701;51.798;19.474;2023-05-02T16:34:02;8.93;;;3.28;;
50733;SDS011;36701;51.798;19.474;2023-05-02T16:36:28;4.60;;;2.80;;
50733;SDS011;36701;51.798;19.474;2023-05-02T16:38:56;6.65;;;2.35;;
50733;SDS011;36701;51.798;19.474;2023-05-02T16:41:22;2.90;;;2.40;;
50733;SDS011;36701;51.798;19.474;2023-05-02T16:43:48;3.75;;;2.50;;
50733;SDS011;36701;51.798;19.474;2023-05-02T16:46:14;8.48;;;3.10;;
50733;SDS011;36701;51.798;19.474;2023-05-02T16:48:41;5.18;;;2.75;;
50733;SDS011;36701;51.798;19.474;2023-05-02T16:51:07;4.25;;;3.00;;
50733;SDS011;36701;51.798;19.474;2023-05-02T16:53:33;5.70;;;2.83;;
50733;SDS011;36701;51.798;19.474;2023-05-02T16:56:06;6.45;;;4.05;;
50733;SDS011;36701;51.798;19.474;2023-05-02T16:58:32;8.15;;;4.32;;
50733;SDS011;36701;51.798;19.474;2023-05-02T17:00:58;3.37;;;3.05;;